createdAt,value
2023-05-13T00:01:11.437Z,65.00
2023-05-13T00:03:38.495Z,65.00
2023-05-13T00:06:05.545Z,65.10
2023-05-13T00:08:32.456Z,65.10
2023-05-13T00:10:59.409Z,65.40
2023-05-13T00:13:26.866Z,65.60
2023-05-13T00:15:53.845Z,65.70
2023-05-13T00:18:20.763Z,66.10
2023-05-13T00:20:49.097Z,65.90
2023-05-13T00:23:15.995Z,66.10
2023-05-13T00:25:44.556Z,65.80
2023-05-13T00:28:14.096Z,65.80
2023-05-13T00:30:45.792Z,65.80
2023-05-13T00:33:12.919Z,65.90
2023-05-13T00:35:39.833Z,65.90
2023-05-13T00:38:07.504Z,66.60
2023-05-13T00:40:37.652Z,65.90
2023-05-13T00:43:04.552Z,66.00
2023-05-13T00:45:31.935Z,66.00
2023-05-13T00:48:00.362Z,66.00
2023-05-13T00:50:27.812Z,66.00
2023-05-13T00:52:57.366Z,66.10
2023-05-13T00:55:24.342Z,66.00
2023-05-13T00:57:52.778Z,66.00
2023-05-13T01:00:20.520Z,66.00
2023-05-13T01:03:20.078Z,66.00
2023-05-13T01:06:05.071Z,65.90
2023-05-13T01:09:02.402Z,66.00
2023-05-13T01:11:34.246Z,66.00
2023-05-13T01:14:11.778Z,66.00
2023-05-13T01:17:01.405Z,66.10
2023-05-13T01:19:52.697Z,66.00
2023-05-13T01:22:19.654Z,66.10
2023-05-13T01:24:46.658Z,66.10
2023-05-13T01:27:14.237Z,66.00
2023-05-13T01:29:41.269Z,66.10
2023-05-13T01:32:10.318Z,66.00
2023-05-13T01:34:39.548Z,66.20
2023-05-13T01:37:06.646Z,66.00
2023-05-13T01:39:36.808Z,66.10
2023-05-13T01:42:03.923Z,66.10
2023-05-13T01:44:31.430Z,66.20
2023-05-13T01:46:58.362Z,66.20
2023-05-13T01:49:25.980Z,66.20
2023-05-13T01:51:52.890Z,66.20
2023-05-13T01:54:19.751Z,66.30
2023-05-13T01:56:46.720Z,66.20
2023-05-13T01:59:13.601Z,66.20
2023-05-13T02:01:40.765Z,66.10
2023-05-13T02:04:08.748Z,66.10
2023-05-13T02:06:35.680Z,66.20
2023-05-13T02:09:02.559Z,66.10
2023-05-13T02:11:29.581Z,66.20
2023-05-13T02:13:56.522Z,66.30
2023-05-13T02:16:23.518Z,66.20
2023-05-13T02:18:50.535Z,66.10
2023-05-13T02:21:17.432Z,66.20
2023-05-13T02:23:44.281Z,66.10
2023-05-13T02:26:11.245Z,66.10
2023-05-13T02:28:39.125Z,66.10
2023-05-13T02:31:06.752Z,66.10
2023-05-13T02:33:33.646Z,66.10
2023-05-13T02:36:00.539Z,66.20
2023-05-13T02:38:27.410Z,66.10
2023-05-13T02:40:54.373Z,66.10
2023-05-13T02:43:21.791Z,66.10
2023-05-13T02:45:48.655Z,66.10
2023-05-13T02:48:16.133Z,66.10
2023-05-13T02:50:43.083Z,66.10
2023-05-13T02:53:09.967Z,66.10
2023-05-13T02:55:36.884Z,66.10
2023-05-13T02:58:04.584Z,66.20
2023-05-13T03:00:31.508Z,66.10
2023-05-13T03:02:58.657Z,66.10
2023-05-13T03:05:26.820Z,66.10
2023-05-13T03:07:55.340Z,66.10
2023-05-13T03:10:24.486Z,66.10
2023-05-13T03:12:51.425Z,66.10
2023-05-13T03:15:18.356Z,66.10
2023-05-13T03:17:45.367Z,66.10
2023-05-13T03:20:12.611Z,66.20
2023-05-13T03:22:39.563Z,66.20
2023-05-13T03:25:07.396Z,66.30
2023-05-13T03:27:34.372Z,66.30
2023-05-13T03:30:01.322Z,66.20
2023-05-13T03:32:30.932Z,66.30
2023-05-13T03:34:58.323Z,66.30
2023-05-13T03:37:25.202Z,66.30
2023-05-13T03:39:52.341Z,66.30
2023-05-13T03:42:20.483Z,66.40
2023-05-13T03:44:47.532Z,66.40
2023-05-13T03:47:14.467Z,66.40
2023-05-13T03:49:41.332Z,66.40
2023-05-13T03:52:08.302Z,66.40
2023-05-13T03:54:35.732Z,66.40
2023-05-13T03:57:02.700Z,66.40
2023-05-13T03:59:29.605Z,66.50
2023-05-13T04:01:56.573Z,66.50
2023-05-13T04:04:23.435Z,66.50
2023-05-13T04:06:50.368Z,66.60
2023-05-13T04:09:17.254Z,66.50
2023-05-13T04:11:44.249Z,66.50
2023-05-13T04:14:11.204Z,66.50
2023-05-13T04:16:38.152Z,66.60
2023-05-13T04:19:05.194Z,67.20
2023-05-13T04:21:32.590Z,66.60
2023-05-13T04:23:59.462Z,66.50
2023-05-13T04:26:26.423Z,66.60
2023-05-13T04:28:53.329Z,66.80
2023-05-13T04:31:21.406Z,66.90
2023-05-13T04:33:48.415Z,66.80
2023-05-13T04:36:15.742Z,66.90
2023-05-13T04:38:42.620Z,66.90
2023-05-13T04:41:09.472Z,66.90
2023-05-13T04:43:36.364Z,66.90
2023-05-13T04:46:03.315Z,66.90
2023-05-13T04:48:30.506Z,66.90
2023-05-13T04:50:58.441Z,66.80
2023-05-13T04:53:27.093Z,66.80
2023-05-13T04:56:00.592Z,66.80
2023-05-13T04:58:28.232Z,66.70
2023-05-13T05:00:55.122Z,66.70
2023-05-13T05:03:23.813Z,66.70
2023-05-13T05:05:50.735Z,66.60
2023-05-13T05:08:17.605Z,66.80
2023-05-13T05:10:44.507Z,66.70
2023-05-13T05:13:11.366Z,66.80
2023-05-13T05:15:38.315Z,66.70
2023-05-13T05:18:06.645Z,66.80
2023-05-13T05:20:33.651Z,66.60
2023-05-13T05:23:00.583Z,66.60
2023-05-13T05:25:27.739Z,66.60
2023-05-13T05:27:54.861Z,66.50
2023-05-13T05:30:22.014Z,66.40
2023-05-13T05:32:49.208Z,66.40
2023-05-13T05:35:17.048Z,66.30
2023-05-13T05:37:43.963Z,66.30
2023-05-13T05:40:11.285Z,66.30
2023-05-13T05:42:39.230Z,66.20
2023-05-13T05:45:06.677Z,66.10
2023-05-13T05:47:33.575Z,66.10
2023-05-13T05:50:00.582Z,66.00
2023-05-13T05:52:27.860Z,66.00
2023-05-13T05:54:54.698Z,65.90
2023-05-13T05:57:22.030Z,65.90
2023-05-13T05:59:48.920Z,65.80
2023-05-13T06:02:15.918Z,65.70
2023-05-13T06:04:42.889Z,65.70
2023-05-13T06:07:09.904Z,65.70
2023-05-13T06:09:36.796Z,65.60
2023-05-13T06:12:03.866Z,65.60
2023-05-13T06:14:30.933Z,65.60
2023-05-13T06:16:57.818Z,65.60
2023-05-13T06:19:24.760Z,65.50
2023-05-13T06:21:53.737Z,65.40
2023-05-13T06:24:20.651Z,65.40
2023-05-13T06:26:48.229Z,65.40
2023-05-13T06:29:16.352Z,65.40
2023-05-13T06:31:43.265Z,65.30
2023-05-13T06:34:16.460Z,65.20
2023-05-13T06:36:44.214Z,65.20
2023-05-13T06:39:12.276Z,65.20
2023-05-13T06:41:42.185Z,65.20
2023-05-13T06:44:09.101Z,65.20
2023-05-13T06:46:39.514Z,65.10
2023-05-13T06:49:06.643Z,65.10
2023-05-13T06:51:34.934Z,65.10
2023-05-13T06:54:01.794Z,65.10
2023-05-13T06:56:30.285Z,65.00
2023-05-13T06:58:57.208Z,65.00
2023-05-13T07:01:24.266Z,65.00
2023-05-13T07:03:51.260Z,65.00
2023-05-13T07:06:19.330Z,64.90
2023-05-13T07:08:46.494Z,64.90
2023-05-13T07:11:13.398Z,64.90
2023-05-13T07:13:41.421Z,64.90
2023-05-13T07:16:08.534Z,64.90
2023-05-13T07:18:36.048Z,64.90
2023-05-13T07:21:03.017Z,64.90
2023-05-13T07:23:30.123Z,64.90
2023-05-13T07:25:57.199Z,64.80
2023-05-13T07:28:24.170Z,64.70
2023-05-13T07:30:53.491Z,64.70
2023-05-13T07:33:21.910Z,64.80
2023-05-13T07:35:48.947Z,64.80
2023-05-13T07:38:16.262Z,64.70
2023-05-13T07:40:43.193Z,64.70
2023-05-13T07:43:10.787Z,64.80
2023-05-13T07:45:39.314Z,64.70
2023-05-13T07:48:07.862Z,64.70
2023-05-13T07:50:34.780Z,64.70
2023-05-13T07:53:03.038Z,64.70
2023-05-13T07:55:30.451Z,64.70
2023-05-13T07:57:57.450Z,64.70
2023-05-13T08:00:24.542Z,64.70
2023-05-13T08:02:51.630Z,64.70
2023-05-13T08:05:18.548Z,64.80
2023-05-13T08:07:45.379Z,64.70
2023-05-13T08:10:12.285Z,64.70
2023-05-13T08:12:40.497Z,64.80
2023-05-13T08:15:09.105Z,64.70
2023-05-13T08:17:37.557Z,64.70
2023-05-13T08:20:04.832Z,64.70
2023-05-13T08:22:31.780Z,64.70
2023-05-13T08:25:01.092Z,64.70
2023-05-13T08:27:28.068Z,64.70
2023-05-13T08:29:54.938Z,64.70
2023-05-13T08:32:21.949Z,64.70
2023-05-13T08:34:48.897Z,64.70
2023-05-13T08:37:15.825Z,64.70
2023-05-13T08:39:42.692Z,64.70
2023-05-13T08:42:11.023Z,64.70
2023-05-13T08:44:42.684Z,64.80
2023-05-13T08:47:14.939Z,64.80
2023-05-13T08:49:42.326Z,64.80
2023-05-13T08:52:09.313Z,64.80
2023-05-13T08:54:38.975Z,64.80
2023-05-13T08:57:06.697Z,64.80
2023-05-13T08:59:33.680Z,64.80
2023-05-13T09:02:03.347Z,64.80
2023-05-13T09:04:30.711Z,64.80
2023-05-13T09:06:58.652Z,64.80
2023-05-13T09:09:25.637Z,64.70
2023-05-13T09:11:52.697Z,64.30
2023-05-13T09:14:22.701Z,64.30
2023-05-13T09:16:49.597Z,64.00
2023-05-13T09:19:17.018Z,64.30
2023-05-13T09:21:44.595Z,63.90
2023-05-13T09:24:19.018Z,64.10
2023-05-13T09:26:46.662Z,64.10
2023-05-13T09:29:18.579Z,64.10
2023-05-13T09:31:48.733Z,64.10
2023-05-13T09:34:35.756Z,64.30
2023-05-13T09:37:04.758Z,64.10
2023-05-13T09:39:34.571Z,64.00
2023-05-13T09:42:04.626Z,63.80
2023-05-13T09:44:33.665Z,63.20
2023-05-13T09:47:02.636Z,63.00
2023-05-13T09:49:31.701Z,62.70
2023-05-13T09:51:58.550Z,62.60
2023-05-13T09:54:27.401Z,62.90
2023-05-13T09:56:59.724Z,62.90
2023-05-13T09:59:26.674Z,63.00
2023-05-13T10:01:55.728Z,63.00
2023-05-13T10:04:24.571Z,63.10
2023-05-13T10:06:51.777Z,63.20
2023-05-13T10:09:22.345Z,63.40
2023-05-13T10:11:50.495Z,63.40
2023-05-13T10:14:18.356Z,63.40
2023-05-13T10:16:47.971Z,63.70
2023-05-13T10:19:15.493Z,63.70
2023-05-13T10:21:42.751Z,63.70
2023-05-13T10:24:10.124Z,63.70
2023-05-13T10:26:38.001Z,63.80
2023-05-13T10:29:05.474Z,63.80
2023-05-13T10:31:32.789Z,63.80
2023-05-13T10:33:59.812Z,63.80
2023-05-13T10:36:42.547Z,64.00
2023-05-13T10:39:15.045Z,64.00
2023-05-13T10:42:10.457Z,64.00
2023-05-13T10:44:37.583Z,64.10
2023-05-13T10:47:04.623Z,64.10
2023-05-13T10:49:35.177Z,64.20
2023-05-13T10:52:14.047Z,64.20
2023-05-13T10:54:42.314Z,64.20
2023-05-13T10:57:10.550Z,64.20
2023-05-13T10:59:38.924Z,64.40
2023-05-13T11:02:25.214Z,64.40
2023-05-13T11:05:01.680Z,64.50
2023-05-13T11:07:31.516Z,64.60
2023-05-13T11:09:59.988Z,64.70
2023-05-13T11:12:27.001Z,64.80
2023-05-13T11:14:56.549Z,64.90
2023-05-13T11:17:25.095Z,65.00
2023-05-13T11:19:53.346Z,65.10
2023-05-13T11:22:24.328Z,65.20
2023-05-13T11:25:08.784Z,65.30
2023-05-13T11:27:41.130Z,66.20
2023-05-13T11:30:21.903Z,65.40
2023-05-13T11:32:57.528Z,65.80
2023-05-13T11:35:27.183Z,66.00
2023-05-13T11:37:57.590Z,66.00
2023-05-13T11:40:30.693Z,66.00
2023-05-13T11:42:58.828Z,66.10
2023-05-13T11:45:30.069Z,66.20
2023-05-13T11:47:58.159Z,66.20
2023-05-13T11:50:32.660Z,66.20
2023-05-13T11:53:01.754Z,66.30
2023-05-13T11:55:35.256Z,66.40
2023-05-13T11:58:02.666Z,66.40
2023-05-13T12:00:31.127Z,66.50
2023-05-13T12:02:58.878Z,66.50
2023-05-13T12:05:26.884Z,66.70
2023-05-13T12:07:58.241Z,66.90
2023-05-13T12:10:26.865Z,67.00
2023-05-13T12:12:54.480Z,67.30
2023-05-13T12:15:23.556Z,67.50
2023-05-13T12:17:50.873Z,67.70
2023-05-13T12:20:24.752Z,67.90
2023-05-13T12:22:57.166Z,68.20
2023-05-13T12:25:42.630Z,68.30
2023-05-13T12:28:19.573Z,68.50
2023-05-13T12:31:00.364Z,68.70
2023-05-13T12:33:41.929Z,69.00
2023-05-13T12:36:21.908Z,70.40
2023-05-13T12:39:01.196Z,71.90
2023-05-13T12:41:37.617Z,71.30
2023-05-13T12:44:16.604Z,71.30
2023-05-13T12:46:55.158Z,71.30
2023-05-13T12:49:22.520Z,71.10
2023-05-13T12:51:53.711Z,71.40
2023-05-13T12:54:21.798Z,71.40
2023-05-13T12:56:48.876Z,71.20
2023-05-13T12:59:16.890Z,71.00
2023-05-13T13:01:43.782Z,70.90
2023-05-13T13:04:10.772Z,70.90
2023-05-13T13:06:37.825Z,70.90
2023-05-13T13:09:06.032Z,70.80
2023-05-13T13:11:32.887Z,70.90
2023-05-13T13:13:59.763Z,71.40
2023-05-13T13:16:27.099Z,70.80
2023-05-13T13:18:56.162Z,70.70
2023-05-13T13:21:23.792Z,70.70
2023-05-13T13:23:50.819Z,70.70
2023-05-13T13:26:17.996Z,70.70
2023-05-13T13:28:44.869Z,70.60
2023-05-13T13:31:12.210Z,70.50
2023-05-13T13:33:39.193Z,70.40
2023-05-13T13:36:06.533Z,70.30
2023-05-13T13:38:36.393Z,70.30
2023-05-13T13:41:03.305Z,70.30
2023-05-13T13:43:30.275Z,70.20
2023-05-13T13:45:58.228Z,70.20
2023-05-13T13:48:25.389Z,70.10
2023-05-13T13:50:53.015Z,70.00
2023-05-13T13:53:22.527Z,70.00
2023-05-13T13:55:49.444Z,70.00
2023-05-13T13:58:16.315Z,70.00
2023-05-13T14:00:43.207Z,69.80
2023-05-13T14:03:10.159Z,69.90
2023-05-13T14:05:37.052Z,69.80
2023-05-13T14:08:03.993Z,69.70
2023-05-13T14:10:30.877Z,69.70
2023-05-13T14:12:57.781Z,69.70
2023-05-13T14:15:28.703Z,69.60
2023-05-13T14:17:55.776Z,69.70
2023-05-13T14:20:24.912Z,69.70
2023-05-13T14:22:53.135Z,69.50
2023-05-13T14:25:21.001Z,69.50
2023-05-13T14:27:47.959Z,69.50
2023-05-13T14:30:14.875Z,69.40
2023-05-13T14:32:45.390Z,69.40
2023-05-13T14:35:13.417Z,69.40
2023-05-13T14:37:40.810Z,69.30
2023-05-13T14:40:08.315Z,69.40
2023-05-13T14:42:35.237Z,69.30
2023-05-13T14:45:02.259Z,69.40
2023-05-13T14:47:29.250Z,69.20
2023-05-13T14:49:57.237Z,69.20
2023-05-13T14:52:24.223Z,69.20
2023-05-13T14:54:51.322Z,69.20
2023-05-13T14:57:19.631Z,69.10
2023-05-13T14:59:46.602Z,69.10
2023-05-13T15:02:14.766Z,69.20
2023-05-13T15:04:41.656Z,69.10
2023-05-13T15:07:08.738Z,69.10
2023-05-13T15:09:35.604Z,69.10
2023-05-13T15:12:02.520Z,69.10
2023-05-13T15:14:29.454Z,69.10
2023-05-13T15:16:57.723Z,69.00
2023-05-13T15:19:24.671Z,69.10
2023-05-13T15:21:51.737Z,69.10
2023-05-13T15:24:18.660Z,69.10
2023-05-13T15:26:45.564Z,69.10
2023-05-13T15:29:12.490Z,69.10
2023-05-13T15:31:39.411Z,69.10
2023-05-13T15:34:07.336Z,69.10
2023-05-13T15:36:35.465Z,69.10
2023-05-13T15:39:02.741Z,69.10
2023-05-13T15:41:29.702Z,69.10
2023-05-13T15:43:56.644Z,69.10
2023-05-13T15:46:24.306Z,69.10
2023-05-13T15:48:51.449Z,69.10
2023-05-13T15:51:18.711Z,69.00
2023-05-13T15:53:45.624Z,69.00
2023-05-13T15:56:12.711Z,69.00
2023-05-13T15:58:39.803Z,69.00
2023-05-13T16:01:06.737Z,69.00
2023-05-13T16:03:33.576Z,69.00
2023-05-13T16:06:00.864Z,69.00
2023-05-13T16:08:27.891Z,69.00
2023-05-13T16:10:54.986Z,69.00
2023-05-13T16:13:22.263Z,69.00
2023-05-13T16:15:49.435Z,69.00
2023-05-13T16:18:16.597Z,69.00
2023-05-13T16:20:43.597Z,69.00
2023-05-13T16:23:10.504Z,68.90
2023-05-13T16:25:39.426Z,68.90
2023-05-13T16:28:06.418Z,68.90
2023-05-13T16:30:33.486Z,68.90
2023-05-13T16:33:00.696Z,68.90
2023-05-13T16:35:27.768Z,68.90
2023-05-13T16:37:54.822Z,68.90
2023-05-13T16:40:21.938Z,68.90
2023-05-13T16:42:50.526Z,68.90
2023-05-13T16:45:17.624Z,68.90
2023-05-13T16:47:44.735Z,68.90
2023-05-13T16:50:11.649Z,69.00
2023-05-13T16:52:38.778Z,68.90
2023-05-13T16:55:06.744Z,69.00
2023-05-13T16:57:33.759Z,69.60
2023-05-13T17:00:00.796Z,69.00
2023-05-13T17:02:28.419Z,69.00
2023-05-13T17:04:55.499Z,69.00
2023-05-13T17:07:25.301Z,69.00
2023-05-13T17:09:52.737Z,69.00
2023-05-13T17:12:20.676Z,69.00
2023-05-13T17:14:49.096Z,69.00
2023-05-13T17:17:16.410Z,69.00
2023-05-13T17:19:45.530Z,69.00
2023-05-13T17:22:12.557Z,69.00
2023-05-13T17:24:40.701Z,69.00
2023-05-13T17:27:08.276Z,68.90
2023-05-13T17:29:35.198Z,68.80
2023-05-13T17:32:02.345Z,68.90
2023-05-13T17:34:29.453Z,68.90
2023-05-13T17:36:56.346Z,68.90
2023-05-13T17:39:23.372Z,68.90
2023-05-13T17:41:50.541Z,68.90
2023-05-13T17:44:17.609Z,68.90
2023-05-13T17:46:44.575Z,68.90
2023-05-13T17:49:11.448Z,68.90
2023-05-13T17:51:39.092Z,69.10
2023-05-13T17:54:05.958Z,69.10
2023-05-13T17:56:32.891Z,69.20
2023-05-13T17:58:59.728Z,69.20
2023-05-13T18:01:26.687Z,69.10
2023-05-13T18:03:53.681Z,69.10
2023-05-13T18:06:20.686Z,69.10
2023-05-13T18:08:47.561Z,69.00
2023-05-13T18:11:14.486Z,69.00
2023-05-13T18:13:41.380Z,68.90
2023-05-13T18:16:10.298Z,68.70
2023-05-13T18:18:38.458Z,69.40
2023-05-13T18:21:05.471Z,68.70
2023-05-13T18:23:32.789Z,68.60
2023-05-13T18:25:59.848Z,68.40
2023-05-13T18:28:26.707Z,68.30
2023-05-13T18:30:53.590Z,68.20
2023-05-13T18:33:21.785Z,68.20
2023-05-13T18:35:50.322Z,68.10
2023-05-13T18:38:17.179Z,68.00
2023-05-13T18:40:44.116Z,67.90
2023-05-13T18:43:11.203Z,67.80
2023-05-13T18:45:38.192Z,67.80
2023-05-13T18:48:07.729Z,67.70
2023-05-13T18:50:34.761Z,67.80
2023-05-13T18:53:01.680Z,67.80
2023-05-13T18:55:28.659Z,67.80
2023-05-13T18:57:55.557Z,68.00
2023-05-13T19:00:23.242Z,68.30
2023-05-13T19:02:53.437Z,68.30
2023-05-13T19:05:23.059Z,68.30
2023-05-13T19:07:54.929Z,68.80
2023-05-13T19:10:22.735Z,69.00
2023-05-13T19:12:51.273Z,69.10
2023-05-13T19:15:21.532Z,69.40
2023-05-13T19:17:48.808Z,69.80
2023-05-13T19:20:16.717Z,69.60
2023-05-13T19:22:43.800Z,69.80
2023-05-13T19:25:11.317Z,69.80
2023-05-13T19:27:38.416Z,69.80
2023-05-13T19:30:06.501Z,69.80
2023-05-13T19:32:33.735Z,70.20
2023-05-13T19:35:01.070Z,70.50
2023-05-13T19:37:28.122Z,70.40
2023-05-13T19:39:55.342Z,70.30
2023-05-13T19:42:22.422Z,70.30
2023-05-13T19:44:49.500Z,70.30
2023-05-13T19:47:16.517Z,70.40
2023-05-13T19:49:43.629Z,70.50
2023-05-13T19:52:11.066Z,70.90
2023-05-13T19:54:39.120Z,71.20
2023-05-13T19:57:06.465Z,71.70
2023-05-13T19:59:38.206Z,72.00
2023-05-13T20:02:05.306Z,72.20
2023-05-13T20:04:32.335Z,72.40
2023-05-13T20:06:59.368Z,72.70
2023-05-13T20:09:26.967Z,73.00
2023-05-13T20:11:55.049Z,73.20
2023-05-13T20:14:27.728Z,73.40
2023-05-13T20:16:56.249Z,73.70
2023-05-13T20:19:23.494Z,73.60
2023-05-13T20:21:50.535Z,73.70
2023-05-13T20:24:17.842Z,74.20
2023-05-13T20:26:44.885Z,73.80
2023-05-13T20:29:12.627Z,73.80
2023-05-13T20:31:42.855Z,73.80
2023-05-13T20:34:10.085Z,73.70
2023-05-13T20:36:39.051Z,73.80
2023-05-13T20:39:07.677Z,73.90
2023-05-13T20:41:34.991Z,74.00
2023-05-13T20:44:02.039Z,73.90
2023-05-13T20:46:30.500Z,73.90
2023-05-13T20:48:57.679Z,74.30
2023-05-13T20:51:24.735Z,74.10
2023-05-13T20:53:51.684Z,74.50
2023-05-13T20:56:18.661Z,74.70
2023-05-13T20:58:46.550Z,74.60
2023-05-13T21:01:13.521Z,74.70
2023-05-13T21:03:40.613Z,74.90
2023-05-13T21:06:07.611Z,75.10
2023-05-13T21:08:39.770Z,74.90
2023-05-13T21:11:07.912Z,74.90
2023-05-13T21:13:35.116Z,75.00
2023-05-13T21:16:05.760Z,74.90
2023-05-13T21:18:34.081Z,74.90
2023-05-13T21:21:01.253Z,75.10
2023-05-13T21:23:29.020Z,75.10
2023-05-13T21:25:55.968Z,75.40
2023-05-13T21:28:24.918Z,75.40
2023-05-13T21:30:51.833Z,75.40
2023-05-13T21:33:19.741Z,75.40
2023-05-13T21:35:48.059Z,75.50
2023-05-13T21:38:14.996Z,75.80
2023-05-13T21:40:42.906Z,75.80
2023-05-13T21:43:10.339Z,75.70
2023-05-13T21:45:37.552Z,75.80
2023-05-13T21:48:05.343Z,75.90
2023-05-13T21:50:33.939Z,76.10
2023-05-13T21:53:01.059Z,76.10
2023-05-13T21:55:28.038Z,76.10
2023-05-13T21:57:55.091Z,76.40
2023-05-13T22:00:22.568Z,76.40
2023-05-13T22:02:51.552Z,76.50
2023-05-13T22:05:19.216Z,76.70
2023-05-13T22:07:46.419Z,76.50
2023-05-13T22:10:13.379Z,76.80
2023-05-13T22:12:41.032Z,77.00
2023-05-13T22:15:08.563Z,77.00
2023-05-13T22:17:35.814Z,77.00
2023-05-13T22:20:02.905Z,77.00
2023-05-13T22:22:30.381Z,77.20
2023-05-13T22:24:57.291Z,77.20
2023-05-13T22:27:24.170Z,77.10
2023-05-13T22:29:51.135Z,77.30
2023-05-13T22:32:18.135Z,77.30
2023-05-13T22:34:45.396Z,77.40
2023-05-13T22:37:12.283Z,77.40
2023-05-13T22:39:40.211Z,77.40
2023-05-13T22:42:07.401Z,77.50
2023-05-13T22:44:35.069Z,77.60
2023-05-13T22:47:01.972Z,77.70
2023-05-13T22:49:29.215Z,77.60
2023-05-13T22:51:56.145Z,78.40
2023-05-13T22:54:24.039Z,78.30
2023-05-13T22:56:50.930Z,77.90
2023-05-13T22:59:18.022Z,77.90
2023-05-13T23:01:44.956Z,78.10
2023-05-13T23:04:11.927Z,78.20
2023-05-13T23:06:38.823Z,78.40
2023-05-13T23:09:05.936Z,78.20
2023-05-13T23:11:32.811Z,78.50
2023-05-13T23:14:02.879Z,78.40
2023-05-13T23:16:29.848Z,78.50
2023-05-13T23:18:56.803Z,78.50
2023-05-13T23:21:23.787Z,78.80
2023-05-13T23:23:52.089Z,79.20
2023-05-13T23:26:19.031Z,78.70
2023-05-13T23:28:46.184Z,79.10
2023-05-13T23:31:13.150Z,78.90
2023-05-13T23:33:40.101Z,79.00
2023-05-13T23:36:07.249Z,79.10
2023-05-13T23:38:34.457Z,79.00
2023-05-13T23:41:01.431Z,79.00
2023-05-13T23:43:28.948Z,79.00
2023-05-13T23:45:55.893Z,79.10
2023-05-13T23:48:22.803Z,79.00
2023-05-13T23:50:49.722Z,79.10
2023-05-13T23:53:16.644Z,78.70
2023-05-13T23:55:43.535Z,78.90
2023-05-13T23:58:10.532Z,78.60
